Time;durP1;ratioP1;P1;durP2;ratioP2;P2;SDS_P1;SDS_P2;PMS_P1;PMS_P2;Temp;Humidity;BMP_temperature;BMP_pressure;BME280_temperature;BME280_humidity;BME280_pressure;Samples;Min_cycle;Max_cycle;Signal;HPM_P1;HPM_P2
2021/05/07 00:01:42;;;;;;;6.93;6.23;;;9.70;96.00;;;;;;5051158;28;20654;-54
2021/05/07 00:04:13;;;;;;;8.23;7.47;;;9.80;96.00;;;;;;5050869;28;20699;-53
2021/05/07 00:06:40;;;;;;;10.90;7.67;;;9.80;95.90;;;;;;5051094;28;20652;-54
2021/05/07 00:09:07;;;;;;;6.90;6.30;;;9.90;96.30;;;;;;5050333;28;20637;-54
2021/05/07 00:11:34;;;;;;;7.57;6.77;;;9.80;96.00;;;;;;5049839;28;20680;-53
2021/05/07 00:14:02;;;;;;;7.73;7.03;;;9.90;96.40;;;;;;5050439;28;20626;-53
2021/05/07 00:16:29;;;;;;;8.23;7.43;;;9.90;96.30;;;;;;5050166;28;20775;-53
2021/05/07 00:18:56;;;;;;;8.53;7.70;;;9.90;95.90;;;;;;5050335;28;20976;-53
2021/05/07 00:21:22;;;;;;;8.67;7.77;;;10.00;95.20;;;;;;5049927;28;20724;-54
2021/05/07 00:23:49;;;;;;;7.70;6.87;;;10.00;95.10;;;;;;5050169;28;20630;-54
2021/05/07 00:26:16;;;;;;;6.53;5.93;;;9.90;95.70;;;;;;5049924;28;21010;-53
2021/05/07 00:28:43;;;;;;;6.63;5.40;;;9.90;95.80;;;;;;5049857;28;20689;-53
2021/05/07 00:31:10;;;;;;;6.70;6.10;;;9.90;95.80;;;;;;5050022;28;20629;-53
2021/05/07 00:33:37;;;;;;;5.90;5.30;;;9.90;95.80;;;;;;5049989;28;20789;-54
2021/05/07 00:36:04;;;;;;;4.97;4.57;;;9.80;95.80;;;;;;5050159;28;20658;-53
2021/05/07 00:38:31;;;;;;;5.40;4.90;;;9.80;95.90;;;;;;5049837;28;20687;-54
2021/05/07 00:40:58;;;;;;;5.83;5.33;;;9.80;95.80;;;;;;5050023;28;20692;-54
2021/05/07 00:43:25;;;;;;;5.67;5.17;;;9.70;95.80;;;;;;5050179;28;20750;-53
2021/05/07 00:45:52;;;;;;;5.47;5.07;;;9.60;95.90;;;;;;5063699;22;21370;-52
2021/05/07 00:48:19;;;;;;;6.03;5.43;;;9.50;96.00;;;;;;5033705;28;20765;-53
2021/05/07 00:50:47;;;;;;;4.50;4.10;;;9.60;96.10;;;;;;5031037;28;20627;-52
2021/05/07 00:53:15;;;;;;;4.70;4.30;;;9.60;96.00;;;;;;5031606;28;20603;-53
2021/05/07 00:55:42;;;;;;;5.73;5.07;;;9.50;95.70;;;;;;5031816;28;21128;-53
2021/05/07 00:58:09;;;;;;;5.07;4.63;;;9.50;95.90;;;;;;5030778;28;20618;-52
2021/05/07 01:00:36;;;;;;;5.03;4.47;;;9.60;96.00;;;;;;5031451;28;20619;-53
2021/05/07 01:03:02;;;;;;;5.10;4.70;;;9.60;95.80;;;;;;5031701;28;20698;-52
2021/05/07 01:05:30;;;;;;;4.97;4.50;;;9.60;95.60;;;;;;5031832;28;20625;-52
2021/05/07 01:07:57;;;;;;;5.23;4.30;;;9.70;96.00;;;;;;5031873;28;21203;-52
2021/05/07 01:10:24;;;;;;;5.00;4.50;;;9.60;95.50;;;;;;5030990;28;20696;-52
2021/05/07 01:12:51;;;;;;;5.60;5.10;;;9.70;95.60;;;;;;5030798;28;20619;-52
2021/05/07 01:15:18;;;;;;;6.37;4.10;;;9.70;95.50;;;;;;5031409;28;20631;-52
2021/05/07 01:17:46;;;;;;;4.03;3.73;;;9.80;95.50;;;;;;5031166;28;20627;-53
2021/05/07 01:20:15;;;;;;;3.43;3.17;;;9.80;95.20;;;;;;5031550;28;20685;-54
2021/05/07 01:22:43;;;;;;;3.83;3.53;;;9.90;95.10;;;;;;5030877;28;20663;-54
2021/05/07 01:25:11;;;;;;;3.93;3.63;;;9.90;95.00;;;;;;5031409;28;20672;-53
2021/05/07 01:27:39;;;;;;;3.90;3.60;;;9.90;94.80;;;;;;5019140;28;20656;-53
2021/05/07 01:30:09;;;;;;;3.60;3.20;;;9.80;94.70;;;;;;5011571;28;20627;-53
2021/05/07 01:32:37;;;;;;;3.97;3.60;;;9.80;94.80;;;;;;5028704;28;20681;-53
2021/05/07 01:35:06;;;;;;;5.10;4.60;;;9.80;94.80;;;;;;5031217;28;20689;-54
2021/05/07 01:37:34;;;;;;;6.33;5.13;;;9.90;95.00;;;;;;5033199;28;20662;-52
2021/05/07 01:40:00;;;;;;;4.50;4.10;;;9.90;94.80;;;;;;5014926;28;20634;-52
2021/05/07 01:42:27;;;;;;;4.10;3.77;;;9.90;94.90;;;;;;5030933;28;20992;-52
2021/05/07 01:44:54;;;;;;;4.37;4.00;;;9.80;94.60;;;;;;5034045;28;20649;-51
2021/05/07 01:47:20;;;;;;;4.40;4.00;;;9.80;94.70;;;;;;5033311;28;20728;-52
2021/05/07 01:49:47;;;;;;;4.40;4.07;;;9.80;94.80;;;;;;5034244;28;21201;-53
2021/05/07 01:52:14;;;;;;;4.73;4.20;;;9.80;94.80;;;;;;5033654;28;20619;-53
2021/05/07 01:54:42;;;;;;;4.63;4.23;;;9.80;94.80;;;;;;5032744;28;20631;-52
2021/05/07 01:57:08;;;;;;;4.20;3.87;;;9.80;94.70;;;;;;5028169;28;20654;-53
2021/05/07 01:59:35;;;;;;;4.57;4.17;;;9.80;94.80;;;;;;5033234;28;20676;-53
2021/05/07 02:02:02;;;;;;;4.80;4.20;;;9.90;94.80;;;;;;5032839;28;20714;-53
2021/05/07 02:04:29;;;;;;;4.43;4.03;;;9.90;94.60;;;;;;5033226;28;20683;-53
2021/05/07 02:06:55;;;;;;;4.73;4.00;;;9.90;94.60;;;;;;5033880;28;20682;-53
2021/05/07 02:09:22;;;;;;;4.63;4.23;;;9.90;94.30;;;;;;5033195;28;20626;-52
2021/05/07 02:11:50;;;;;;;4.33;3.93;;;9.80;94.30;;;;;;5033523;28;21166;-53
2021/05/07 02:14:16;;;;;;;4.40;4.10;;;9.90;94.40;;;;;;5033785;28;20622;-52
2021/05/07 02:16:43;;;;;;;5.40;5.00;;;9.80;94.30;;;;;;5032901;28;20658;-52
2021/05/07 02:19:10;;;;;;;5.33;4.83;;;9.80;94.40;;;;;;5033067;28;20631;-51
2021/05/07 02:21:36;;;;;;;4.63;4.23;;;9.80;94.40;;;;;;5032269;28;20689;-52
2021/05/07 02:24:04;;;;;;;4.77;4.30;;;9.80;94.40;;;;;;5032597;28;21028;-52
2021/05/07 02:26:31;;;;;;;4.40;4.00;;;9.80;94.40;;;;;;5032920;28;21082;-52
2021/05/07 02:28:59;;;;;;;4.80;4.40;;;9.70;94.40;;;;;;5032628;28;20651;-53
2021/05/07 02:31:26;;;;;;;5.83;5.33;;;9.80;94.60;;;;;;5032851;28;20627;-52
2021/05/07 02:33:53;;;;;;;6.70;5.97;;;9.80;94.50;;;;;;5033020;28;20634;-51
2021/05/07 02:36:19;;;;;;;4.10;3.43;;;9.80;94.40;;;;;;5033512;28;20713;-52
2021/05/07 02:38:46;;;;;;;4.60;4.20;;;9.80;94.40;;;;;;5032572;28;20633;-52
2021/05/07 02:41:13;;;;;;;5.13;4.63;;;9.80;94.40;;;;;;5032795;28;20685;-52
2021/05/07 02:43:40;;;;;;;5.50;5.00;;;9.80;94.40;;;;;;5032609;28;20655;-53
2021/05/07 02:46:07;;;;;;;4.57;4.17;;;9.90;94.50;;;;;;5032809;28;21393;-53
2021/05/07 02:48:34;;;;;;;5.17;4.67;;;9.80;94.30;;;;;;5031522;28;20646;-53
2021/05/07 02:51:01;;;;;;;5.83;4.90;;;9.80;94.40;;;;;;5032484;28;21215;-52
2021/05/07 02:53:27;;;;;;;5.53;3.53;;;9.80;94.50;;;;;;5013935;28;20623;-51
2021/05/07 02:55:55;;;;;;;6.07;5.50;;;9.80;94.50;;;;;;5011193;28;20663;-52
2021/05/07 02:58:21;;;;;;;5.30;4.80;;;9.80;94.50;;;;;;5012647;28;20636;-52
2021/05/07 03:00:48;;;;;;;5.30;4.60;;;9.80;94.30;;;;;;5014583;28;21056;-52
2021/05/07 03:03:16;;;;;;;5.43;4.90;;;9.80;94.40;;;;;;5032664;28;20659;-52
2021/05/07 03:05:43;;;;;;;5.53;5.00;;;9.80;94.60;;;;;;5032493;28;20651;-52
2021/05/07 03:08:09;;;;;;;4.80;4.40;;;9.90;94.60;;;;;;5032165;28;20654;-52
2021/05/07 03:10:36;;;;;;;5.53;5.03;;;9.90;94.80;;;;;;5030544;28;21042;-51
2021/05/07 03:13:03;;;;;;;5.80;5.30;;;9.80;94.50;;;;;;5031639;28;20623;-52
2021/05/07 03:15:30;;;;;;;6.20;5.60;;;9.80;94.60;;;;;;5032017;28;20631;-52
2021/05/07 03:17:57;;;;;;;6.00;5.50;;;9.90;94.60;;;;;;5032170;28;20695;-51
2021/05/07 03:20:24;;;;;;;5.73;5.23;;;9.90;94.50;;;;;;5028495;28;20639;-50
2021/05/07 03:22:51;;;;;;;4.60;4.20;;;9.90;94.10;;;;;;5032023;28;20674;-51
2021/05/07 03:25:18;;;;;;;5.93;5.43;;;9.90;94.20;;;;;;5030546;28;20627;-51
2021/05/07 03:27:45;;;;;;;5.23;4.70;;;9.90;94.20;;;;;;5031319;28;20994;-51
2021/05/07 03:30:13;;;;;;;6.20;5.70;;;9.90;94.30;;;;;;5031712;28;21060;-52
2021/05/07 03:32:40;;;;;;;6.87;6.03;;;9.90;94.40;;;;;;5031534;28;20668;-51
2021/05/07 03:35:07;;;;;;;7.03;6.20;;;10.00;93.90;;;;;;5032124;28;20666;-51
2021/05/07 03:37:35;;;;;;;8.90;5.33;;;10.00;93.80;;;;;;5031632;28;20654;-53
2021/05/07 03:40:02;;;;;;;6.80;6.20;;;10.00;93.70;;;;;;5031543;28;20677;-53
2021/05/07 03:42:28;;;;;;;5.97;5.47;;;9.90;93.90;;;;;;5031901;28;20659;-53
2021/05/07 03:44:55;;;;;;;7.50;6.90;;;9.90;94.00;;;;;;5031780;28;20622;-52
2021/05/07 03:47:22;;;;;;;6.40;5.80;;;9.90;94.20;;;;;;5031622;28;20744;-53
2021/05/07 03:49:49;;;;;;;7.90;7.10;;;9.90;94.30;;;;;;5030273;28;20770;-54
2021/05/07 03:52:15;;;;;;;7.10;6.50;;;9.90;94.30;;;;;;5031600;28;20671;-53
2021/05/07 03:54:44;;;;;;;6.90;6.30;;;10.00;93.90;;;;;;5031201;28;20627;-54
2021/05/07 03:57:11;;;;;;;7.50;6.90;;;10.00;93.90;;;;;;5030884;28;21292;-51
2021/05/07 03:59:38;;;;;;;7.53;6.83;;;10.00;93.70;;;;;;5030847;28;20693;-51
2021/05/07 04:02:05;;;;;;;7.70;7.00;;;10.00;93.60;;;;;;5030503;28;20693;-51
2021/05/07 04:04:33;;;;;;;7.70;6.73;;;10.10;93.50;;;;;;5031482;28;20692;-51
2021/05/07 04:07:00;;;;;;;7.60;7.00;;;10.10;93.40;;;;;;5030684;28;20720;-53
2021/05/07 04:09:31;;;;;;;7.97;7.27;;;10.10;93.40;;;;;;5031071;28;20929;-54
2021/05/07 04:12:10;;;;;;;8.07;7.37;;;10.10;93.50;;;;;;5031361;28;21027;-53
2021/05/07 04:14:37;;;;;;;8.47;7.77;;;10.10;93.10;;;;;;5031300;28;20847;-52
2021/05/07 04:17:04;;;;;;;9.37;8.57;;;10.10;93.20;;;;;;5030176;28;20682;-53
2021/05/07 04:19:30;;;;;;;8.90;8.10;;;10.10;93.20;;;;;;5030595;28;20685;-52
2021/05/07 04:21:57;;;;;;;8.70;7.67;;;10.10;93.10;;;;;;5030890;28;21447;-52
2021/05/07 04:24:24;;;;;;;8.20;7.50;;;10.10;93.10;;;;;;5031010;28;20680;-53
2021/05/07 04:26:52;;;;;;;7.47;6.77;;;10.10;93.00;;;;;;5030403;28;20700;-52
2021/05/07 04:29:21;;;;;;;8.83;7.97;;;10.10;92.10;;;;;;5029950;28;20631;-52
2021/05/07 04:31:48;;;;;;;8.43;7.63;;;10.10;91.70;;;;;;5030930;28;21090;-53
2021/05/07 04:34:15;;;;;;;10.23;9.20;;;10.10;91.70;;;;;;5030506;28;20682;-52
2021/05/07 04:36:41;;;;;;;11.23;10.13;;;10.00;91.70;;;;;;5030028;28;20693;-51
2021/05/07 04:39:08;;;;;;;10.73;9.73;;;10.00;91.60;;;;;;5014445;28;20670;-52
2021/05/07 04:41:35;;;;;;;12.87;11.63;;;10.00;91.40;;;;;;5024692;28;20635;-52
2021/05/07 04:44:02;;;;;;;14.23;12.73;;;9.90;91.60;;;;;;5042413;28;20692;-51
2021/05/07 04:46:30;;;;;;;15.10;13.53;;;9.80;91.30;;;;;;5014996;28;20701;-51
2021/05/07 04:48:57;;;;;;;12.90;11.67;;;9.80;91.30;;;;;;5030617;28;20696;-52
2021/05/07 04:51:24;;;;;;;14.40;12.90;;;9.70;91.20;;;;;;5030475;28;20673;-51
2021/05/07 04:53:51;;;;;;;13.43;12.03;;;9.60;91.30;;;;;;5030725;28;20654;-51
2021/05/07 04:56:18;;;;;;;14.27;13.00;;;9.60;91.30;;;;;;5030122;28;20647;-51
2021/05/07 04:58:44;;;;;;;14.40;12.90;;;9.60;91.20;;;;;;5030209;28;21205;-51
2021/05/07 05:01:11;;;;;;;14.77;13.30;;;9.60;91.00;;;;;;5027379;28;20631;-51
2021/05/07 05:03:39;;;;;;;14.20;12.90;;;9.50;90.80;;;;;;5031645;28;20654;-51
2021/05/07 05:06:06;;;;;;;16.40;14.70;;;9.50;90.60;;;;;;5018857;28;20722;-50
2021/05/07 05:08:32;;;;;;;16.97;15.27;;;9.50;90.50;;;;;;5026575;28;21203;-51
2021/05/07 05:10:59;;;;;;;16.17;14.60;;;9.50;90.20;;;;;;5014438;28;20669;-51
2021/05/07 05:13:26;;;;;;;17.03;15.43;;;9.50;90.10;;;;;;5022952;28;20619;-51
2021/05/07 05:15:53;;;;;;;18.03;16.33;;;9.50;90.10;;;;;;5023963;28;21041;-53
2021/05/07 05:18:27;;;;;;;16.30;14.70;;;9.50;90.10;;;;;;5027092;28;20693;-51
2021/05/07 05:20:55;;;;;;;17.40;15.60;;;9.50;90.10;;;;;;5025212;28;20705;-52
2021/05/07 05:23:22;;;;;;;16.53;14.87;;;9.50;90.00;;;;;;5021229;28;20686;-51
2021/05/07 05:25:49;;;;;;;16.77;15.10;;;9.50;90.00;;;;;;5023904;28;20665;-52
2021/05/07 05:28:15;;;;;;;15.90;14.40;;;9.50;90.10;;;;;;5025879;28;20793;-53
2021/05/07 05:30:42;;;;;;;15.63;14.13;;;9.50;90.10;;;;;;5025326;28;20685;-53
2021/05/07 05:33:11;;;;;;;17.60;15.90;;;9.50;89.90;;;;;;5028328;28;20678;-53
2021/05/07 05:35:38;;;;;;;16.23;14.70;;;9.60;89.60;;;;;;5022771;28;20631;-51
2021/05/07 05:38:05;;;;;;;16.80;15.30;;;9.60;89.00;;;;;;5026010;28;20626;-52
2021/05/07 05:40:32;;;;;;;16.17;14.57;;;9.60;88.60;;;;;;5027028;28;20634;-53
2021/05/07 05:43:01;;;;;;;16.33;14.83;;;9.70;88.80;;;;;;5027858;28;20651;-54
2021/05/07 05:45:28;;;;;;;17.27;15.73;;;9.70;88.70;;;;;;5025469;28;20686;-54
2021/05/07 05:48:02;;;;;;;16.37;14.77;;;9.80;88.70;;;;;;5015190;28;20650;-52
2021/05/07 05:50:28;;;;;;;16.93;15.33;;;9.90;89.00;;;;;;5014781;28;20690;-51
2021/05/07 05:52:55;;;;;;;17.17;15.40;;;10.00;87.50;;;;;;5031305;28;20641;-51
2021/05/07 05:55:23;;;;;;;17.50;15.90;;;10.00;85.60;;;;;;5041561;28;20654;-51
2021/05/07 05:57:49;;;;;;;17.30;15.70;;;10.10;85.30;;;;;;5028178;28;20635;-51
2021/05/07 06:00:17;;;;;;;16.83;15.23;;;10.10;85.20;;;;;;5025605;28;20645;-51
2021/05/07 06:02:44;;;;;;;15.87;14.30;;;10.10;83.00;;;;;;5026786;28;20693;-50
2021/05/07 06:05:11;;;;;;;17.40;15.67;;;10.10;83.60;;;;;;5026810;28;20627;-51
2021/05/07 06:07:38;;;;;;;16.63;15.03;;;10.10;82.50;;;;;;5022337;28;20654;-51
2021/05/07 06:10:06;;;;;;;17.73;16.13;;;10.10;82.10;;;;;;5024442;28;20630;-52
2021/05/07 06:12:34;;;;;;;16.90;15.40;;;10.10;81.50;;;;;;5023791;28;20701;-52
2021/05/07 06:15:00;;;;;;;19.83;17.93;;;10.10;81.90;;;;;;5025358;28;20746;-52
2021/05/07 06:17:28;;;;;;;18.63;16.73;;;10.10;82.50;;;;;;5021782;28;20919;-53
2021/05/07 06:19:56;;;;;;;18.63;16.80;;;10.20;82.60;;;;;;5018938;28;20627;-51
2021/05/07 06:22:23;;;;;;;17.53;15.93;;;10.20;83.10;;;;;;5013418;28;20624;-52
2021/05/07 06:24:50;;;;;;;18.27;16.63;;;10.20;82.80;;;;;;5027320;28;20720;-51
2021/05/07 06:27:17;;;;;;;17.07;15.47;;;10.20;83.30;;;;;;5027650;28;20647;-52
2021/05/07 06:29:45;;;;;;;14.83;13.53;;;10.10;81.90;;;;;;5024668;28;20651;-52
2021/05/07 06:32:12;;;;;;;12.87;10.80;;;10.20;82.10;;;;;;5023411;28;20692;-51
2021/05/07 06:34:39;;;;;;;13.70;11.73;;;10.10;81.10;;;;;;5025141;28;20615;-52
2021/05/07 06:37:05;;;;;;;13.87;12.43;;;10.00;79.60;;;;;;5020904;28;20721;-54
2021/05/07 06:39:32;;;;;;;15.33;13.73;;;10.00;80.30;;;;;;5023993;28;21250;-54
2021/05/07 06:41:59;;;;;;;15.80;13.67;;;10.00;81.10;;;;;;5022559;28;21202;-52
2021/05/07 06:44:26;;;;;;;15.30;13.90;;;10.10;82.00;;;;;;5020828;28;20767;-51
2021/05/07 06:46:54;;;;;;;13.40;10.00;;;10.10;82.20;;;;;;5026296;28;20659;-52
2021/05/07 06:49:21;;;;;;;13.00;11.80;;;10.30;80.70;;;;;;5017759;28;21172;-52
2021/05/07 06:51:48;;;;;;;13.33;12.03;;;10.30;80.40;;;;;;5032497;28;20746;-51
2021/05/07 06:54:15;;;;;;;12.80;11.40;;;10.30;80.50;;;;;;5028523;28;20642;-52
2021/05/07 06:56:41;;;;;;;11.87;10.77;;;10.40;81.00;;;;;;5029530;28;20658;-53
2021/05/07 06:59:09;;;;;;;12.47;11.27;;;10.40;78.50;;;;;;5029032;28;20696;-52
2021/05/07 07:01:36;;;;;;;12.83;11.53;;;10.40;78.00;;;;;;5036949;28;20627;-52
2021/05/07 07:04:04;;;;;;;13.23;11.40;;;10.30;76.20;;;;;;5032491;28;20647;-53
2021/05/07 07:06:31;;;;;;;11.23;10.07;;;10.30;76.60;;;;;;5032673;28;20690;-52
2021/05/07 07:08:58;;;;;;;12.03;10.87;;;10.30;76.10;;;;;;5032338;28;20653;-53
2021/05/07 07:11:25;;;;;;;9.70;8.70;;;10.30;75.90;;;;;;5032556;28;20639;-52
2021/05/07 07:13:52;;;;;;;8.67;7.87;;;10.30;74.60;;;;;;5021887;28;20632;-52
2021/05/07 07:16:19;;;;;;;13.30;11.10;;;10.40;73.10;;;;;;5032766;28;20663;-53
2021/05/07 07:18:46;;;;;;;12.30;11.13;;;10.40;73.00;;;;;;5031639;28;21254;-51
2021/05/07 07:21:13;;;;;;;13.50;9.53;;;10.40;73.50;;;;;;5032424;28;20642;-51
2021/05/07 07:23:40;;;;;;;11.50;10.40;;;10.50;73.10;;;;;;5031967;28;20661;-52
2021/05/07 07:26:07;;;;;;;12.67;11.47;;;10.50;72.30;;;;;;5031702;28;21203;-51
2021/05/07 07:28:35;;;;;;;10.97;10.07;;;10.70;73.00;;;;;;5033413;28;20630;-53
2021/05/07 07:31:02;;;;;;;10.70;9.17;;;10.80;73.40;;;;;;5032045;28;21011;-53
2021/05/07 07:33:29;;;;;;;10.30;9.30;;;10.90;70.80;;;;;;5032000;28;20673;-54
2021/05/07 07:35:56;;;;;;;11.13;9.97;;;11.00;71.30;;;;;;5032450;28;20651;-54
2021/05/07 07:38:24;;;;;;;11.40;10.40;;;11.10;71.40;;;;;;5033060;28;20989;-53
2021/05/07 07:40:51;;;;;;;10.17;9.27;;;11.30;69.80;;;;;;5028141;28;20623;-53
2021/05/07 07:43:20;;;;;;;9.00;8.20;;;11.50;67.50;;;;;;5031779;28;20663;-52
2021/05/07 07:45:47;;;;;;;8.77;7.97;;;11.80;64.80;;;;;;5031103;28;20671;-52
2021/05/07 07:48:14;;;;;;;9.53;8.40;;;12.00;63.60;;;;;;5042444;28;20626;-53
2021/05/07 07:50:41;;;;;;;9.67;8.87;;;12.00;61.70;;;;;;5030519;28;20618;-54
2021/05/07 07:53:09;;;;;;;10.30;9.30;;;11.80;61.60;;;;;;5031297;28;21075;-52
2021/05/07 07:55:36;;;;;;;10.33;9.33;;;11.70;61.10;;;;;;5023545;28;20694;-52
2021/05/07 07:58:03;;;;;;;9.83;8.93;;;11.70;62.40;;;;;;5023708;28;20680;-51
2021/05/07 08:00:30;;;;;;;9.00;8.30;;;11.90;61.30;;;;;;5030550;28;20696;-52
2021/05/07 08:02:57;;;;;;;9.50;8.10;;;12.20;60.00;;;;;;5031313;28;21187;-54
2021/05/07 08:05:24;;;;;;;9.60;8.70;;;12.50;58.40;;;;;;5031624;28;20627;-54
2021/05/07 08:07:51;;;;;;;8.37;7.67;;;12.90;57.60;;;;;;5031772;28;20631;-54
2021/05/07 08:10:18;;;;;;;8.83;8.03;;;13.00;56.20;;;;;;5031980;28;20626;-54
2021/05/07 08:12:46;;;;;;;10.13;9.23;;;12.80;56.90;;;;;;5031398;28;20629;-53
2021/05/07 08:15:13;;;;;;;11.20;9.97;;;12.60;56.40;;;;;;5031756;28;20622;-53
2021/05/07 08:17:40;;;;;;;11.20;10.10;;;12.60;58.40;;;;;;5030703;28;20667;-52
2021/05/07 08:20:09;;;;;;;12.30;9.23;;;12.60;56.70;;;;;;5031624;28;20635;-53
2021/05/07 08:22:36;;;;;;;10.23;9.20;;;12.60;57.10;;;;;;5031399;28;20636;-53
2021/05/07 08:25:03;;;;;;;8.53;7.80;;;12.60;55.50;;;;;;5031552;28;20693;-53
2021/05/07 08:27:30;;;;;;;9.00;8.20;;;12.70;54.90;;;;;;5032063;28;21026;-53
2021/05/07 08:29:57;;;;;;;10.93;9.97;;;12.80;54.90;;;;;;5031748;28;20634;-53
2021/05/07 08:32:24;;;;;;;10.70;9.67;;;12.90;54.70;;;;;;5031463;28;20934;-53
2021/05/07 08:34:51;;;;;;;10.30;9.50;;;12.90;55.80;;;;;;5032165;28;21090;-52
2021/05/07 08:37:18;;;;;;;8.80;8.10;;;12.90;54.70;;;;;;5032307;28;20647;-52
2021/05/07 08:39:44;;;;;;;7.53;6.83;;;12.90;54.40;;;;;;5032301;28;20634;-52
2021/05/07 08:42:11;;;;;;;10.20;9.13;;;12.80;51.70;;;;;;5031641;28;20626;-53
2021/05/07 08:44:38;;;;;;;8.50;7.80;;;12.80;53.50;;;;;;5031371;28;21376;-53
2021/05/07 08:47:07;;;;;;;9.87;8.90;;;13.00;52.20;;;;;;5028700;28;20662;-53
2021/05/07 08:49:34;;;;;;;9.10;8.33;;;13.10;53.50;;;;;;5034492;28;21226;-55
2021/05/07 08:52:00;;;;;;;9.03;8.20;;;13.30;52.20;;;;;;5034590;28;20627;-52
2021/05/07 08:54:28;;;;;;;8.77;7.97;;;13.40;51.10;;;;;;5029533;28;20631;-54
2021/05/07 08:56:55;;;;;;;8.33;7.63;;;13.30;49.00;;;;;;5034561;28;20741;-52
2021/05/07 08:59:22;;;;;;;8.97;8.00;;;13.30;49.10;;;;;;5034483;28;21195;-52
2021/05/07 09:01:50;;;;;;;10.60;9.30;;;13.20;49.50;;;;;;5034592;28;20653;-52
2021/05/07 09:04:19;;;;;;;8.80;8.10;;;13.10;50.50;;;;;;5034439;28;20701;-52
2021/05/07 09:06:50;;;;;;;8.27;7.43;;;13.30;50.80;;;;;;5034526;28;20681;-53
2021/05/07 09:09:22;;;;;;;8.90;8.03;;;13.30;48.90;;;;;;5034051;28;20637;-54
2021/05/07 09:11:49;;;;;;;8.77;7.97;;;13.40;49.10;;;;;;5034987;28;20661;-52
2021/05/07 09:14:16;;;;;;;7.80;7.10;;;13.50;48.10;;;;;;5024887;28;20620;-52
2021/05/07 09:16:53;;;;;;;9.30;8.50;;;13.70;47.90;;;;;;5027075;28;21248;-52
2021/05/07 09:19:22;;;;;;;9.17;8.27;;;13.60;47.90;;;;;;5019824;28;20955;-52
2021/05/07 09:21:49;;;;;;;8.30;7.60;;;13.60;48.80;;;;;;5034620;28;20978;-51
2021/05/07 09:24:16;;;;;;;7.43;6.83;;;13.80;48.70;;;;;;5035014;28;20670;-51
2021/05/07 09:26:47;;;;;;;8.93;8.20;;;13.80;47.00;;;;;;5034895;28;20720;-54
2021/05/07 09:29:21;;;;;;;7.67;6.93;;;13.70;46.50;;;;;;5034303;28;20684;-52
2021/05/07 09:31:49;;;;;;;10.47;9.57;;;13.80;46.80;;;;;;5034495;28;20658;-54
2021/05/07 09:34:16;;;;;;;8.67;7.97;;;13.80;47.20;;;;;;5034454;28;21109;-53
2021/05/07 09:36:44;;;;;;;9.30;8.43;;;13.80;47.00;;;;;;5034962;28;20663;-52
2021/05/07 09:39:11;;;;;;;8.40;7.60;;;13.90;47.70;;;;;;5034056;28;20627;-52
2021/05/07 09:41:42;;;;;;;8.67;7.80;;;14.10;45.70;;;;;;5034842;28;20781;-55
2021/05/07 09:44:16;;;;;;;6.80;6.30;;;14.30;45.70;;;;;;5034840;28;20732;-54
2021/05/07 09:46:43;;;;;;;10.10;7.50;;;14.60;44.40;;;;;;5034193;28;20666;-52
2021/05/07 09:49:10;;;;;;;7.43;6.83;;;15.10;43.40;;;;;;5034323;28;20618;-53
2021/05/07 09:51:40;;;;;;;8.83;8.10;;;15.40;42.80;;;;;;5033843;28;20643;-54
2021/05/07 09:54:09;;;;;;;7.83;7.13;;;15.40;43.40;;;;;;5033897;28;20653;-54
2021/05/07 09:56:36;;;;;;;5.80;5.30;;;15.20;42.90;;;;;;5032546;28;21045;-52
2021/05/07 09:59:03;;;;;;;6.30;5.70;;;15.00;43.00;;;;;;5033870;28;20627;-52
2021/05/07 10:01:30;;;;;;;5.70;5.20;;;14.40;42.10;;;;;;5033577;28;20622;-54
2021/05/07 10:03:58;;;;;;;6.80;6.10;;;14.10;41.40;;;;;;5033807;28;20709;-51
2021/05/07 10:06:25;;;;;;;6.30;5.70;;;13.70;42.50;;;;;;5029557;28;20744;-52
2021/05/07 10:08:52;;;;;;;4.50;3.60;;;13.50;43.90;;;;;;5031527;28;20619;-50
2021/05/07 10:11:21;;;;;;;3.90;3.50;;;13.40;44.60;;;;;;5033801;28;20611;-51
2021/05/07 10:13:48;;;;;;;4.83;3.47;;;13.30;44.50;;;;;;5032744;28;20692;-52
2021/05/07 10:16:15;;;;;;;3.70;3.40;;;13.40;43.80;;;;;;5032068;28;20708;-52
2021/05/07 10:18:42;;;;;;;4.70;4.20;;;13.60;43.00;;;;;;5033105;28;20963;-52
2021/05/07 10:21:10;;;;;;;3.90;3.30;;;13.70;43.70;;;;;;5034283;28;20631;-53
2021/05/07 10:23:37;;;;;;;4.00;1.90;;;13.90;44.60;;;;;;5033978;28;20627;-53
2021/05/07 10:26:05;;;;;;;6.07;3.10;;;13.70;46.70;;;;;;5033451;28;20749;-52
2021/05/07 10:28:45;;;;;;;5.20;1.77;;;13.30;49.20;;;;;;5031803;28;21028;-53
2021/05/07 10:31:12;;;;;;;3.30;2.63;;;12.90;52.70;;;;;;5033242;28;20630;-53
2021/05/07 10:33:42;;;;;;;2.50;2.30;;;12.70;55.30;;;;;;5033554;28;20619;-53
2021/05/07 10:36:09;;;;;;;3.00;2.80;;;12.40;57.10;;;;;;5033579;28;20656;-53
2021/05/07 10:38:46;;;;;;;3.03;2.80;;;12.10;60.00;;;;;;5033302;28;20627;-56
2021/05/07 10:41:13;;;;;;;2.40;2.20;;;11.80;64.20;;;;;;5033552;28;20700;-53
2021/05/07 10:43:41;;;;;;;1.90;1.77;;;11.70;67.50;;;;;;5032761;28;20646;-53
2021/05/07 10:46:19;;;;;;;9.03;2.33;;;11.70;70.30;;;;;;5030673;28;20663;-52
2021/05/07 10:48:51;;;;;;;2.73;2.27;;;11.80;71.90;;;;;;5026876;28;20627;-52
2021/05/07 10:51:18;;;;;;;2.27;2.07;;;12.20;73.30;;;;;;5029298;28;20663;-52
2021/05/07 10:53:44;;;;;;;3.23;2.57;;;12.50;72.20;;;;;;5033325;28;20680;-52
2021/05/07 10:56:18;;;;;;;2.97;2.40;;;12.80;71.10;;;;;;5032994;28;20705;-52
2021/05/07 10:58:46;;;;;;;3.43;2.90;;;12.80;68.50;;;;;;5032599;28;20635;-53
2021/05/07 11:01:22;;;;;;;4.83;4.07;;;12.80;68.80;;;;;;5032658;28;21048;-52
2021/05/07 11:04:04;;;;;;;3.97;3.57;;;12.50;67.10;;;;;;5031263;28;21032;-51
2021/05/07 11:06:32;;;;;;;3.50;3.20;;;12.10;68.10;;;;;;5030174;28;20667;-52
2021/05/07 11:08:59;;;;;;;4.37;3.97;;;12.00;70.60;;;;;;5031028;28;20627;-52
2021/05/07 11:11:34;;;;;;;4.93;3.90;;;12.00;70.90;;;;;;5032083;28;21277;-53
2021/05/07 11:14:02;;;;;;;4.57;4.17;;;12.00;73.30;;;;;;5028175;28;20619;-53
2021/05/07 11:16:39;;;;;;;5.40;4.90;;;12.40;73.90;;;;;;5031241;28;20998;-54
2021/05/07 11:19:06;;;;;;;4.07;3.67;;;12.80;73.30;;;;;;5030524;28;20647;-54
2021/05/07 11:21:33;;;;;;;4.87;4.37;;;13.20;72.10;;;;;;5031695;28;20622;-54
2021/05/07 11:24:00;;;;;;;5.07;4.27;;;13.40;72.80;;;;;;5032192;28;20653;-51
2021/05/07 11:26:36;;;;;;;4.03;3.73;;;13.70;73.00;;;;;;5024871;28;21021;-52
2021/05/07 11:29:07;;;;;;;4.67;4.23;;;14.20;70.10;;;;;;5031847;28;21199;-54
2021/05/07 11:31:34;;;;;;;4.50;4.10;;;14.70;67.40;;;;;;5032600;28;20631;-53
2021/05/07 11:34:01;;;;;;;3.40;3.10;;;15.30;63.40;;;;;;5031752;28;21056;-52
2021/05/07 11:36:28;;;;;;;4.07;3.67;;;15.30;56.50;;;;;;5032445;28;20721;-53
2021/05/07 11:38:55;;;;;;;5.43;4.83;;;15.10;56.20;;;;;;5031397;28;20663;-54
2021/05/07 11:41:23;;;;;;;4.03;3.73;;;14.90;56.10;;;;;;5032050;28;20635;-53
2021/05/07 11:43:50;;;;;;;4.80;4.00;;;14.70;56.70;;;;;;5031148;28;20654;-53
2021/05/07 11:46:18;;;;;;;4.07;3.67;;;14.40;56.10;;;;;;5031687;28;20667;-54
2021/05/07 11:48:46;;;;;;;4.63;4.23;;;14.00;55.60;;;;;;5031593;28;21250;-53
2021/05/07 11:51:12;;;;;;;4.37;4.00;;;13.80;57.10;;;;;;5024297;28;20624;-53
2021/05/07 11:53:39;;;;;;;4.53;4.13;;;13.70;57.70;;;;;;5023801;28;21296;-54
2021/05/07 11:56:07;;;;;;;5.33;4.50;;;13.60;58.50;;;;;;5031251;28;21482;-53
2021/05/07 11:58:34;;;;;;;4.47;4.07;;;13.90;59.50;;;;;;5026095;28;20669;-54
2021/05/07 12:01:01;;;;;;;4.80;4.40;;;14.30;57.90;;;;;;5032001;28;20624;-54
2021/05/07 12:03:39;;;;;;;5.57;5.10;;;14.60;55.70;;;;;;5030352;28;20627;-54
2021/05/07 12:06:21;;;;;;;3.50;3.17;;;15.10;55.50;;;;;;5031450;28;20662;-54
2021/05/07 12:08:49;;;;;;;4.50;3.73;;;15.50;52.60;;;;;;5029249;28;20639;-54
2021/05/07 12:11:19;;;;;;;5.10;4.70;;;15.70;49.90;;;;;;5029948;28;20603;-54
2021/05/07 12:13:46;;;;;;;3.43;3.23;;;15.70;47.40;;;;;;5031626;28;20985;-52
2021/05/07 12:16:13;;;;;;;4.03;3.73;;;15.50;46.80;;;;;;5031556;28;20708;-53
2021/05/07 12:18:47;;;;;;;3.97;3.67;;;15.50;46.10;;;;;;5031113;28;20611;-54
2021/05/07 12:21:14;;;;;;;3.70;3.40;;;15.60;46.20;;;;;;5031125;28;20622;-52
2021/05/07 12:23:43;;;;;;;3.43;3.23;;;16.00;44.90;;;;;;5031603;28;21190;-54
2021/05/07 12:26:10;;;;;;;4.30;4.00;;;16.20;43.70;;;;;;5031272;28;20663;-53
2021/05/07 12:28:38;;;;;;;3.80;3.50;;;16.30;43.50;;;;;;5031048;28;20681;-52
2021/05/07 12:31:05;;;;;;;3.90;3.60;;;16.60;42.60;;;;;;5030950;28;21225;-53
2021/05/07 12:33:35;;;;;;;3.80;3.50;;;17.20;40.80;;;;;;5030702;28;20638;-52
2021/05/07 12:36:03;;;;;;;3.70;3.40;;;17.60;40.20;;;;;;5030503;28;20647;-52
2021/05/07 12:38:31;;;;;;;3.30;3.10;;;17.80;39.50;;;;;;5031286;28;21175;-52
2021/05/07 12:40:59;;;;;;;4.00;3.60;;;17.80;38.00;;;;;;5027101;28;20677;-53
2021/05/07 12:43:26;;;;;;;4.17;3.87;;;17.90;37.70;;;;;;5031329;28;20635;-52
2021/05/07 12:45:53;;;;;;;4.27;3.97;;;18.00;36.60;;;;;;5029722;28;20654;-52
2021/05/07 12:48:20;;;;;;;4.10;3.67;;;18.20;36.60;;;;;;5030620;28;20669;-53